sensor_id;sensor_type;location;lat;lon;timestamp;pressure;altitude;pressure_sealevel;temperature;humidity
12757;BME280;31601;48.042;12.240;2023-02-18T00:00:53;97016.34;;;13.56;57.85
12757;BME280;31601;48.042;12.240;2023-02-18T00:03:21;97011.63;;;13.51;57.66
12757;BME280;31601;48.042;12.240;2023-02-18T00:05:49;97013.28;;;13.37;58.04
12757;BME280;31601;48.042;12.240;2023-02-18T00:08:16;97002.28;;;13.34;58.04
12757;BME280;31601;48.042;12.240;2023-02-18T00:10:43;97001.44;;;13.18;58.71
12757;BME280;31601;48.042;12.240;2023-02-18T00:13:09;97015.34;;;13.27;58.39
12757;BME280;31601;48.042;12.240;2023-02-18T00:15:36;97014.44;;;13.20;58.41
12757;BME280;31601;48.042;12.240;2023-02-18T00:18:03;97020.31;;;12.92;59.52
12757;BME280;31601;48.042;12.240;2023-02-18T00:20:30;97020.38;;;12.99;58.92
12757;BME280;31601;48.042;12.240;2023-02-18T00:22:59;97019.41;;;13.00;58.91
12757;BME280;31601;48.042;12.240;2023-02-18T00:25:25;97013.38;;;12.91;58.98
12757;BME280;31601;48.042;12.240;2023-02-18T00:27:51;97017.09;;;12.82;59.24
12757;BME280;31601;48.042;12.240;2023-02-18T00:30:18;97012.44;;;12.69;59.50
12757;BME280;31601;48.042;12.240;2023-02-18T00:32:44;97014.78;;;12.64;59.98
12757;BME280;31601;48.042;12.240;2023-02-18T00:35:11;97012.47;;;12.46;60.66
12757;BME280;31601;48.042;12.240;2023-02-18T00:37:37;97013.84;;;12.57;60.46
12757;BME280;31601;48.042;12.240;2023-02-18T00:40:06;97004.28;;;12.41;60.98
12757;BME280;31601;48.042;12.240;2023-02-18T00:42:33;97001.53;;;12.34;61.35
12757;BME280;31601;48.042;12.240;2023-02-18T00:44:59;97006.75;;;12.42;60.97
12757;BME280;31601;48.042;12.240;2023-02-18T00:47:26;96998.16;;;12.25;61.48
12757;BME280;31601;48.042;12.240;2023-02-18T00:49:52;96988.72;;;12.31;61.70
12757;BME280;31601;48.042;12.240;2023-02-18T00:52:19;96992.22;;;12.23;62.01
12757;BME280;31601;48.042;12.240;2023-02-18T00:54:45;96993.59;;;12.19;62.50
12757;BME280;31601;48.042;12.240;2023-02-18T00:57:13;96996.78;;;12.29;62.01
12757;BME280;31601;48.042;12.240;2023-02-18T00:59:40;96995.16;;;12.28;62.05
12757;BME280;31601;48.042;12.240;2023-02-18T01:02:06;96994.81;;;12.31;62.18
12757;BME280;31601;48.042;12.240;2023-02-18T01:04:33;96994.50;;;12.26;62.41
12757;BME280;31601;48.042;12.240;2023-02-18T01:06:59;96993.81;;;12.32;62.10
12757;BME280;31601;48.042;12.240;2023-02-18T01:09:25;96999.38;;;12.38;62.02
12757;BME280;31601;48.042;12.240;2023-02-18T01:11:52;96996.75;;;12.38;61.71
12757;BME280;31601;48.042;12.240;2023-02-18T01:14:20;96996.31;;;12.49;61.38
12757;BME280;31601;48.042;12.240;2023-02-18T01:16:46;96991.31;;;12.39;61.56
12757;BME280;31601;48.042;12.240;2023-02-18T01:19:13;96991.47;;;12.38;61.77
12757;BME280;31601;48.042;12.240;2023-02-18T01:21:39;96994.22;;;12.44;61.80
12757;BME280;31601;48.042;12.240;2023-02-18T01:24:06;96990.06;;;12.50;61.67
12757;BME280;31601;48.042;12.240;2023-02-18T01:26:32;96989.75;;;12.45;61.92
12757;BME280;31601;48.042;12.240;2023-02-18T01:28:59;96991.41;;;12.46;62.17
12757;BME280;31601;48.042;12.240;2023-02-18T01:31:26;96984.50;;;12.45;61.89
12757;BME280;31601;48.042;12.240;2023-02-18T01:33:53;96987.63;;;12.48;62.14
12757;BME280;31601;48.042;12.240;2023-02-18T01:36:20;96994.09;;;12.61;61.71
12757;BME280;31601;48.042;12.240;2023-02-18T01:38:49;96984.28;;;12.54;61.95
12757;BME280;31601;48.042;12.240;2023-02-18T01:41:15;96980.31;;;12.74;61.13
12757;BME280;31601;48.042;12.240;2023-02-18T01:43:42;96980.66;;;12.70;61.48
12757;BME280;31601;48.042;12.240;2023-02-18T01:46:17;96971.78;;;12.86;61.31
12757;BME280;31601;48.042;12.240;2023-02-18T01:48:48;96974.25;;;12.73;61.43
12757;BME280;31601;48.042;12.240;2023-02-18T01:51:17;96970.97;;;12.86;61.07
12757;BME280;31601;48.042;12.240;2023-02-18T01:53:50;96964.25;;;12.83;61.04
12757;BME280;31601;48.042;12.240;2023-02-18T01:56:23;96969.78;;;12.74;61.22
12757;BME280;31601;48.042;12.240;2023-02-18T01:58:52;96950.91;;;12.70;61.42
12757;BME280;31601;48.042;12.240;2023-02-18T02:01:19;96953.19;;;12.73;61.00
12757;BME280;31601;48.042;12.240;2023-02-18T02:03:47;96952.06;;;12.67;61.20
12757;BME280;31601;48.042;12.240;2023-02-18T02:06:17;96957.47;;;12.51;61.87
12757;BME280;31601;48.042;12.240;2023-02-18T02:08:44;96959.03;;;12.60;61.51
12757;BME280;31601;48.042;12.240;2023-02-18T02:11:21;96949.75;;;12.49;61.63
12757;BME280;31601;48.042;12.240;2023-02-18T02:14:05;96963.41;;;12.53;61.59
12757;BME280;31601;48.042;12.240;2023-02-18T02:16:40;96964.72;;;12.49;61.50
12757;BME280;31601;48.042;12.240;2023-02-18T02:22:39;96956.63;;;12.35;61.86
12757;BME280;31601;48.042;12.240;2023-02-18T02:25:24;96955.16;;;12.33;61.77
12757;BME280;31601;48.042;12.240;2023-02-18T02:28:09;96953.28;;;12.18;62.51
12757;BME280;31601;48.042;12.240;2023-02-18T02:31:02;96948.88;;;12.19;62.42
12757;BME280;31601;48.042;12.240;2023-02-18T02:36:39;96942.06;;;12.02;63.29
12757;BME280;31601;48.042;12.240;2023-02-18T02:39:15;96939.50;;;12.16;63.14
12757;BME280;31601;48.042;12.240;2023-02-18T02:41:50;96925.00;;;12.21;63.53
12757;BME280;31601;48.042;12.240;2023-02-18T02:44:20;96930.09;;;12.22;62.85
12757;BME280;31601;48.042;12.240;2023-02-18T02:46:51;96923.72;;;12.16;62.87
12757;BME280;31601;48.042;12.240;2023-02-18T02:49:27;96926.41;;;12.31;62.53
12757;BME280;31601;48.042;12.240;2023-02-18T02:52:04;96932.13;;;12.35;62.42
12757;BME280;31601;48.042;12.240;2023-02-18T02:54:33;96935.63;;;12.27;62.45
12757;BME280;31601;48.042;12.240;2023-02-18T02:57:05;96935.47;;;12.29;62.23
12757;BME280;31601;48.042;12.240;2023-02-18T02:59:33;96935.53;;;12.21;62.64
12757;BME280;31601;48.042;12.240;2023-02-18T03:02:17;96936.41;;;12.36;62.31
12757;BME280;31601;48.042;12.240;2023-02-18T03:04:59;96921.94;;;12.32;62.41
12757;BME280;31601;48.042;12.240;2023-02-18T03:07:49;96925.47;;;12.24;62.93
12757;BME280;31601;48.042;12.240;2023-02-18T03:10:31;96928.59;;;12.43;62.16
12757;BME280;31601;48.042;12.240;2023-02-18T03:13:06;96926.31;;;12.40;62.60
12757;BME280;31601;48.042;12.240;2023-02-18T03:15:39;96912.47;;;12.46;62.35
12757;BME280;31601;48.042;12.240;2023-02-18T03:18:15;96902.84;;;12.53;62.12
12757;BME280;31601;48.042;12.240;2023-02-18T03:20:46;96896.94;;;12.51;61.98
12757;BME280;31601;48.042;12.240;2023-02-18T03:23:20;96899.84;;;12.41;62.46
12757;BME280;31601;48.042;12.240;2023-02-18T03:25:48;96905.34;;;12.31;63.10
12757;BME280;31601;48.042;12.240;2023-02-18T03:28:17;96923.59;;;12.33;63.36
12757;BME280;31601;48.042;12.240;2023-02-18T03:30:47;96925.38;;;12.32;63.89
12757;BME280;31601;48.042;12.240;2023-02-18T03:33:16;96925.56;;;12.31;63.85
12757;BME280;31601;48.042;12.240;2023-02-18T03:35:46;96913.13;;;12.63;63.13
12757;BME280;31601;48.042;12.240;2023-02-18T03:38:16;96913.75;;;12.50;63.68
12757;BME280;31601;48.042;12.240;2023-02-18T03:40:45;96910.88;;;12.75;62.88
12757;BME280;31601;48.042;12.240;2023-02-18T03:43:12;96906.84;;;12.79;62.64
12757;BME280;31601;48.042;12.240;2023-02-18T03:45:38;96916.31;;;12.88;62.29
12757;BME280;31601;48.042;12.240;2023-02-18T03:48:05;96916.31;;;12.73;62.82
12757;BME280;31601;48.042;12.240;2023-02-18T03:50:32;96912.75;;;12.66;63.37
12757;BME280;31601;48.042;12.240;2023-02-18T03:52:58;96906.13;;;12.85;62.46
12757;BME280;31601;48.042;12.240;2023-02-18T03:55:24;96903.88;;;12.82;62.29
12757;BME280;31601;48.042;12.240;2023-02-18T03:57:52;96895.97;;;12.82;62.31
12757;BME280;31601;48.042;12.240;2023-02-18T04:00:19;96902.13;;;12.59;63.21
12757;BME280;31601;48.042;12.240;2023-02-18T04:02:46;96893.25;;;12.75;62.70
12757;BME280;31601;48.042;12.240;2023-02-18T04:05:12;96887.00;;;12.76;62.21
12757;BME280;31601;48.042;12.240;2023-02-18T04:07:39;96889.03;;;12.51;63.32
12757;BME280;31601;48.042;12.240;2023-02-18T04:10:06;96900.09;;;12.31;63.90
12757;BME280;31601;48.042;12.240;2023-02-18T04:12:33;96893.41;;;12.44;63.34
12757;BME280;31601;48.042;12.240;2023-02-18T04:15:01;96893.66;;;12.11;64.35
12757;BME280;31601;48.042;12.240;2023-02-18T04:17:27;96892.34;;;12.15;64.46
12757;BME280;31601;48.042;12.240;2023-02-18T04:19:54;96900.03;;;12.54;63.23
12757;BME280;31601;48.042;12.240;2023-02-18T04:22:20;96894.31;;;12.51;63.08
12757;BME280;31601;48.042;12.240;2023-02-18T04:24:47;96894.53;;;12.26;63.77
12757;BME280;31601;48.042;12.240;2023-02-18T04:27:13;96893.81;;;11.94;64.61
12757;BME280;31601;48.042;12.240;2023-02-18T04:29:40;96905.41;;;12.23;63.91
12757;BME280;31601;48.042;12.240;2023-02-18T04:32:07;96910.50;;;12.25;64.03
12757;BME280;31601;48.042;12.240;2023-02-18T04:34:34;96913.25;;;12.31;63.50
12757;BME280;31601;48.042;12.240;2023-02-18T04:37:00;96898.94;;;12.11;64.64
12757;BME280;31601;48.042;12.240;2023-02-18T04:39:27;96912.13;;;12.26;63.67
12757;BME280;31601;48.042;12.240;2023-02-18T04:41:53;96912.53;;;11.91;65.50
12757;BME280;31601;48.042;12.240;2023-02-18T04:44:20;96908.03;;;12.23;64.18
12757;BME280;31601;48.042;12.240;2023-02-18T04:46:46;96903.25;;;12.27;63.72
12757;BME280;31601;48.042;12.240;2023-02-18T04:49:14;96904.84;;;12.13;63.82
12757;BME280;31601;48.042;12.240;2023-02-18T04:51:40;96908.22;;;11.98;64.68
12757;BME280;31601;48.042;12.240;2023-02-18T04:54:06;96901.69;;;11.63;66.35
12757;BME280;31601;48.042;12.240;2023-02-18T04:56:33;96908.59;;;11.64;66.14
12757;BME280;31601;48.042;12.240;2023-02-18T04:58:59;96914.50;;;11.97;65.30
12757;BME280;31601;48.042;12.240;2023-02-18T05:01:26;96910.28;;;12.11;64.40
12757;BME280;31601;48.042;12.240;2023-02-18T05:03:52;96907.06;;;12.01;64.87
12757;BME280;31601;48.042;12.240;2023-02-18T05:06:20;96908.28;;;11.90;64.87
12757;BME280;31601;48.042;12.240;2023-02-18T05:08:46;96908.28;;;11.90;64.88
12757;BME280;31601;48.042;12.240;2023-02-18T05:11:13;96910.63;;;11.85;65.26
12757;BME280;31601;48.042;12.240;2023-02-18T05:13:39;96917.81;;;11.91;65.02
12757;BME280;31601;48.042;12.240;2023-02-18T05:16:06;96922.63;;;11.56;66.15
12757;BME280;31601;48.042;12.240;2023-02-18T05:18:32;96923.44;;;11.80;65.18
12757;BME280;31601;48.042;12.240;2023-02-18T05:20:58;96929.41;;;11.74;65.29
12757;BME280;31601;48.042;12.240;2023-02-18T05:23:26;96920.41;;;11.68;65.85
12757;BME280;31601;48.042;12.240;2023-02-18T05:25:53;96925.25;;;11.56;66.07
12757;BME280;31601;48.042;12.240;2023-02-18T05:28:20;96917.81;;;11.60;66.12
12757;BME280;31601;48.042;12.240;2023-02-18T05:30:46;96917.34;;;11.56;66.20
12757;BME280;31601;48.042;12.240;2023-02-18T05:33:13;96917.44;;;11.40;66.65
12757;BME280;31601;48.042;12.240;2023-02-18T05:35:39;96908.63;;;11.33;67.22
12757;BME280;31601;48.042;12.240;2023-02-18T05:38:06;96912.97;;;11.17;68.11
12757;BME280;31601;48.042;12.240;2023-02-18T05:40:33;96914.13;;;11.46;66.61
12757;BME280;31601;48.042;12.240;2023-02-18T05:43:00;96919.00;;;11.57;66.16
12757;BME280;31601;48.042;12.240;2023-02-18T05:45:26;96916.41;;;11.49;66.62
12757;BME280;31601;48.042;12.240;2023-02-18T05:47:53;96919.41;;;11.69;65.77
12757;BME280;31601;48.042;12.240;2023-02-18T05:50:19;96913.00;;;11.72;65.65
12757;BME280;31601;48.042;12.240;2023-02-18T05:52:46;96919.13;;;11.87;65.33
12757;BME280;31601;48.042;12.240;2023-02-18T05:55:12;96910.28;;;11.88;65.04
12757;BME280;31601;48.042;12.240;2023-02-18T05:57:40;96913.03;;;11.95;64.84
12757;BME280;31601;48.042;12.240;2023-02-18T06:00:07;96922.41;;;11.89;65.04
12757;BME280;31601;48.042;12.240;2023-02-18T06:02:34;96915.56;;;11.80;65.51
12757;BME280;31601;48.042;12.240;2023-02-18T06:05:00;96910.13;;;12.13;64.26
12757;BME280;31601;48.042;12.240;2023-02-18T06:07:27;96915.47;;;12.20;63.74
12757;BME280;31601;48.042;12.240;2023-02-18T06:09:53;96911.53;;;12.00;63.93
12757;BME280;31601;48.042;12.240;2023-02-18T06:12:20;96910.06;;;11.98;63.91
12757;BME280;31601;48.042;12.240;2023-02-18T06:14:48;96913.78;;;11.80;64.03
12757;BME280;31601;48.042;12.240;2023-02-18T06:17:15;96916.66;;;11.94;64.00
12757;BME280;31601;48.042;12.240;2023-02-18T06:19:43;96914.41;;;11.82;64.52
12757;BME280;31601;48.042;12.240;2023-02-18T06:22:09;96916.09;;;11.75;64.68
12757;BME280;31601;48.042;12.240;2023-02-18T06:24:36;96913.31;;;12.00;63.93
12757;BME280;31601;48.042;12.240;2023-02-18T06:27:03;96910.34;;;12.03;63.78
12757;BME280;31601;48.042;12.240;2023-02-18T06:29:29;96923.59;;;11.55;65.57
12757;BME280;31601;48.042;12.240;2023-02-18T06:31:57;96925.56;;;11.85;64.92
12757;BME280;31601;48.042;12.240;2023-02-18T06:34:25;96922.09;;;11.92;64.74
12757;BME280;31601;48.042;12.240;2023-02-18T06:36:52;96927.84;;;12.34;63.48
12757;BME280;31601;48.042;12.240;2023-02-18T06:39:18;96926.06;;;12.49;63.21
12757;BME280;31601;48.042;12.240;2023-02-18T06:41:44;96914.28;;;12.60;62.84
12757;BME280;31601;48.042;12.240;2023-02-18T06:44:11;96920.25;;;12.54;62.82
12757;BME280;31601;48.042;12.240;2023-02-18T06:46:39;96921.09;;;12.69;62.65
12757;BME280;31601;48.042;12.240;2023-02-18T06:49:07;96930.44;;;12.57;62.70
12757;BME280;31601;48.042;12.240;2023-02-18T06:51:33;96925.16;;;12.57;62.48
12757;BME280;31601;48.042;12.240;2023-02-18T06:54:00;96925.03;;;12.74;62.10
12757;BME280;31601;48.042;12.240;2023-02-18T06:56:26;96937.97;;;12.60;62.47
12757;BME280;31601;48.042;12.240;2023-02-18T06:58:55;96938.09;;;12.82;61.73
12757;BME280;31601;48.042;12.240;2023-02-18T07:01:21;96941.56;;;12.82;61.58
12757;BME280;31601;48.042;12.240;2023-02-18T07:03:48;96948.38;;;12.92;61.48
12757;BME280;31601;48.042;12.240;2023-02-18T07:06:15;96933.66;;;12.82;61.24
12757;BME280;31601;48.042;12.240;2023-02-18T07:08:42;96947.19;;;12.41;62.26
12757;BME280;31601;48.042;12.240;2023-02-18T07:11:08;96935.81;;;12.79;61.61
12757;BME280;31601;48.042;12.240;2023-02-18T07:13:35;96941.53;;;12.67;61.46
12757;BME280;31601;48.042;12.240;2023-02-18T07:16:01;96937.78;;;12.47;62.01
12757;BME280;31601;48.042;12.240;2023-02-18T07:18:27;96939.16;;;12.72;61.69
12757;BME280;31601;48.042;12.240;2023-02-18T07:20:54;96933.09;;;12.72;61.30
12757;BME280;31601;48.042;12.240;2023-02-18T07:23:21;96927.75;;;12.95;60.76
12757;BME280;31601;48.042;12.240;2023-02-18T07:25:48;96934.38;;;12.91;60.29
12757;BME280;31601;48.042;12.240;2023-02-18T07:28:14;96924.31;;;12.80;60.49
12757;BME280;31601;48.042;12.240;2023-02-18T07:30:41;96927.28;;;12.77;60.67
12757;BME280;31601;48.042;12.240;2023-02-18T07:33:07;96927.66;;;12.74;60.34
12757;BME280;31601;48.042;12.240;2023-02-18T07:35:34;96923.47;;;12.94;59.82
12757;BME280;31601;48.042;12.240;2023-02-18T07:38:00;96928.38;;;12.97;59.56
12757;BME280;31601;48.042;12.240;2023-02-18T07:40:29;96917.13;;;13.03;59.42
12757;BME280;31601;48.042;12.240;2023-02-18T07:42:55;96930.03;;;13.13;59.46
12757;BME280;31601;48.042;12.240;2023-02-18T07:45:22;96931.41;;;12.79;59.65
12757;BME280;31601;48.042;12.240;2023-02-18T07:47:48;96943.91;;;13.22;58.87
12757;BME280;31601;48.042;12.240;2023-02-18T07:50:15;96935.63;;;12.80;59.60
12757;BME280;31601;48.042;12.240;2023-02-18T07:52:41;96922.84;;;12.92;59.34
12757;BME280;31601;48.042;12.240;2023-02-18T07:55:07;96933.53;;;12.76;59.40
12757;BME280;31601;48.042;12.240;2023-02-18T07:57:35;96924.47;;;13.23;58.63
12757;BME280;31601;48.042;12.240;2023-02-18T08:00:21;96917.66;;;13.43;58.10
12757;BME280;31601;48.042;12.240;2023-02-18T08:02:48;96925.75;;;13.27;58.25
12757;BME280;31601;48.042;12.240;2023-02-18T08:05:14;96930.22;;;13.12;58.64
12757;BME280;31601;48.042;12.240;2023-02-18T08:07:41;96928.56;;;13.40;57.90
12757;BME280;31601;48.042;12.240;2023-02-18T08:10:08;96933.03;;;13.10;58.53
12757;BME280;31601;48.042;12.240;2023-02-18T08:12:36;96931.03;;;12.97;58.83
12757;BME280;31601;48.042;12.240;2023-02-18T08:15:05;96928.03;;;12.85;59.43
12757;BME280;31601;48.042;12.240;2023-02-18T08:17:31;96918.59;;;13.21;58.48
12757;BME280;31601;48.042;12.240;2023-02-18T08:19:58;96927.38;;;13.28;58.32
12757;BME280;31601;48.042;12.240;2023-02-18T08:22:24;96929.84;;;13.15;58.73
12757;BME280;31601;48.042;12.240;2023-02-18T08:24:53;96915.47;;;13.32;58.67
12757;BME280;31601;48.042;12.240;2023-02-18T08:27:20;96920.22;;;13.37;58.42
12757;BME280;31601;48.042;12.240;2023-02-18T08:29:48;96899.50;;;13.34;58.35
12757;BME280;31601;48.042;12.240;2023-02-18T08:32:14;96908.78;;;13.66;57.48
12757;BME280;31601;48.042;12.240;2023-02-18T08:34:41;96910.13;;;13.40;58.32
12757;BME280;31601;48.042;12.240;2023-02-18T08:37:07;96903.97;;;13.33;58.76
12757;BME280;31601;48.042;12.240;2023-02-18T08:39:34;96907.34;;;13.64;57.79
12757;BME280;31601;48.042;12.240;2023-02-18T08:42:01;96896.75;;;13.42;58.04
12757;BME280;31601;48.042;12.240;2023-02-18T08:44:27;96906.94;;;13.30;58.33
12757;BME280;31601;48.042;12.240;2023-02-18T08:46:55;96903.75;;;13.20;58.40
12757;BME280;31601;48.042;12.240;2023-02-18T08:49:21;96897.41;;;13.44;58.20
12757;BME280;31601;48.042;12.240;2023-02-18T08:51:48;96896.38;;;13.82;57.72
12757;BME280;31601;48.042;12.240;2023-02-18T08:54:15;96890.75;;;13.70;57.29
12757;BME280;31601;48.042;12.240;2023-02-18T08:56:42;96887.44;;;13.61;57.81
12757;BME280;31601;48.042;12.240;2023-02-18T08:59:08;96878.72;;;14.04;57.10
12757;BME280;31601;48.042;12.240;2023-02-18T09:01:35;96871.41;;;14.56;55.77
12757;BME280;31601;48.042;12.240;2023-02-18T09:04:03;96879.50;;;14.76;55.09
12757;BME280;31601;48.042;12.240;2023-02-18T09:06:29;96866.38;;;14.96;54.64
12757;BME280;31601;48.042;12.240;2023-02-18T09:08:56;96875.81;;;15.12;54.02
12757;BME280;31601;48.042;12.240;2023-02-18T09:11:23;96879.41;;;14.97;54.78
12757;BME280;31601;48.042;12.240;2023-02-18T09:13:49;96875.69;;;14.85;54.80
12757;BME280;31601;48.042;12.240;2023-02-18T09:16:17;96877.91;;;15.23;53.50
12757;BME280;31601;48.042;12.240;2023-02-18T09:18:44;96879.09;;;15.20;53.90
12757;BME280;31601;48.042;12.240;2023-02-18T09:21:14;96876.16;;;14.95;54.46
12757;BME280;31601;48.042;12.240;2023-02-18T09:23:41;96856.84;;;15.50;53.17
12757;BME280;31601;48.042;12.240;2023-02-18T09:26:10;96855.97;;;15.36;53.07
12757;BME280;31601;48.042;12.240;2023-02-18T09:28:38;96844.84;;;15.67;52.30
12757;BME280;31601;48.042;12.240;2023-02-18T09:31:05;96858.34;;;15.79;51.81
12757;BME280;31601;48.042;12.240;2023-02-18T09:33:34;96850.41;;;15.92;51.59
12757;BME280;31601;48.042;12.240;2023-02-18T09:36:03;96859.19;;;16.13;51.18
12757;BME280;31601;48.042;12.240;2023-02-18T09:38:31;96859.19;;;16.00;51.64
12757;BME280;31601;48.042;12.240;2023-02-18T09:41:00;96857.94;;;15.82;51.48
12757;BME280;31601;48.042;12.240;2023-02-18T09:43:30;96864.56;;;15.45;52.72
12757;BME280;31601;48.042;12.240;2023-02-18T09:46:00;96846.94;;;14.68;53.80
12757;BME280;31601;48.042;12.240;2023-02-18T09:48:30;96843.50;;;14.75;53.84
12757;BME280;31601;48.042;12.240;2023-02-18T09:50:58;96842.53;;;14.47;54.65
12757;BME280;31601;48.042;12.240;2023-02-18T09:53:25;96847.09;;;14.60;55.25
12757;BME280;31601;48.042;12.240;2023-02-18T09:55:55;96831.00;;;14.27;55.62
12757;BME280;31601;48.042;12.240;2023-02-18T09:58:25;96830.06;;;14.63;54.34
12757;BME280;31601;48.042;12.240;2023-02-18T10:01:01;96819.75;;;14.75;53.91
12757;BME280;31601;48.042;12.240;2023-02-18T10:03:29;96818.91;;;14.67;54.48
12757;BME280;31601;48.042;12.240;2023-02-18T10:05:57;96821.34;;;14.41;55.23
12757;BME280;31601;48.042;12.240;2023-02-18T10:08:27;96810.59;;;14.71;54.41
12757;BME280;31601;48.042;12.240;2023-02-18T10:10:56;96813.94;;;14.93;54.00
12757;BME280;31601;48.042;12.240;2023-02-18T10:13:24;96802.66;;;14.42;54.70
12757;BME280;31601;48.042;12.240;2023-02-18T10:15:51;96804.13;;;14.80;54.22
12757;BME280;31601;48.042;12.240;2023-02-18T10:18:25;96796.44;;;14.92;54.97
12757;BME280;31601;48.042;12.240;2023-02-18T10:21:04;96793.38;;;14.81;54.14
12757;BME280;31601;48.042;12.240;2023-02-18T10:23:33;96790.44;;;15.11;53.75
12757;BME280;31601;48.042;12.240;2023-02-18T10:26:05;96791.63;;;15.02;53.28
12757;BME280;31601;48.042;12.240;2023-02-18T10:28:34;96780.78;;;15.58;52.66
12757;BME280;31601;48.042;12.240;2023-02-18T10:31:04;96780.34;;;15.55;52.27
12757;BME280;31601;48.042;12.240;2023-02-18T10:33:41;96778.97;;;15.72;51.69
12757;BME280;31601;48.042;12.240;2023-02-18T10:36:22;96777.94;;;14.85;53.70
12757;BME280;31601;48.042;12.240;2023-02-18T10:39:01;96786.09;;;14.55;53.70
12757;BME280;31601;48.042;12.240;2023-02-18T10:41:43;96781.50;;;14.64;54.10
12757;BME280;31601;48.042;12.240;2023-02-18T10:44:22;96765.25;;;15.15;53.50
12757;BME280;31601;48.042;12.240;2023-02-18T10:46:56;96759.53;;;15.12;53.17
12757;BME280;31601;48.042;12.240;2023-02-18T10:49:39;96749.44;;;15.55;52.31
12757;BME280;31601;48.042;12.240;2023-02-18T10:52:13;96745.38;;;15.66;52.18
12757;BME280;31601;48.042;12.240;2023-02-18T10:54:50;96742.50;;;15.61;52.21
12757;BME280;31601;48.042;12.240;2023-02-18T10:57:19;96733.56;;;15.49;52.20
12757;BME280;31601;48.042;12.240;2023-02-18T10:59:55;96725.28;;;15.79;51.19
12757;BME280;31601;48.042;12.240;2023-02-18T11:02:25;96717.28;;;16.05;50.90
12757;BME280;31601;48.042;12.240;2023-02-18T11:04:55;96710.59;;;15.96;51.12
12757;BME280;31601;48.042;12.240;2023-02-18T11:07:25;96691.84;;;15.98;51.51
12757;BME280;31601;48.042;12.240;2023-02-18T11:09:55;96692.84;;;15.76;50.55
12757;BME280;31601;48.042;12.240;2023-02-18T11:12:26;96677.00;;;15.90;50.35
12757;BME280;31601;48.042;12.240;2023-02-18T11:15:06;96671.81;;;16.28;50.25
12757;BME280;31601;48.042;12.240;2023-02-18T11:17:42;96667.13;;;16.31;49.21
12757;BME280;31601;48.042;12.240;2023-02-18T11:20:21;96657.78;;;16.67;49.00
12757;BME280;31601;48.042;12.240;2023-02-18T11:22:48;96653.38;;;16.54;49.34
12757;BME280;31601;48.042;12.240;2023-02-18T11:25:19;96645.16;;;16.69;48.34
12757;BME280;31601;48.042;12.240;2023-02-18T11:27:50;96648.66;;;17.01;48.41
12757;BME280;31601;48.042;12.240;2023-02-18T11:30:21;96635.69;;;17.18;47.90
12757;BME280;31601;48.042;12.240;2023-02-18T11:32:52;96636.66;;;17.24;47.55
12757;BME280;31601;48.042;12.240;2023-02-18T11:35:23;96637.56;;;16.34;49.05
12757;BME280;31601;48.042;12.240;2023-02-18T11:37:50;96636.97;;;16.32;49.19
12757;BME280;31601;48.042;12.240;2023-02-18T11:40:22;96637.72;;;16.84;48.34
12757;BME280;31601;48.042;12.240;2023-02-18T11:42:50;96621.84;;;16.45;47.93
12757;BME280;31601;48.042;12.240;2023-02-18T11:45:27;96636.50;;;16.93;47.68
12757;BME280;31601;48.042;12.240;2023-02-18T11:47:58;96633.00;;;16.02;48.17
12757;BME280;31601;48.042;12.240;2023-02-18T11:50:25;96634.03;;;16.53;48.66
12757;BME280;31601;48.042;12.240;2023-02-18T11:52:55;96619.00;;;16.79;48.23
12757;BME280;31601;48.042;12.240;2023-02-18T11:55:26;96610.94;;;16.99;47.31
12757;BME280;31601;48.042;12.240;2023-02-18T11:57:57;96613.16;;;17.02;46.74
12757;BME280;31601;48.042;12.240;2023-02-18T12:00:35;96619.75;;;16.93;47.20
12757;BME280;31601;48.042;12.240;2023-02-18T12:03:07;96610.88;;;16.35;47.34
12757;BME280;31601;48.042;12.240;2023-02-18T12:05:39;96617.19;;;16.34;47.33
12757;BME280;31601;48.042;12.240;2023-02-18T12:08:12;96610.19;;;16.08;46.73
12757;BME280;31601;48.042;12.240;2023-02-18T12:10:45;96590.56;;;16.29;46.58
12757;BME280;31601;48.042;12.240;2023-02-18T12:13:22;96586.84;;;16.37;46.71
12757;BME280;31601;48.042;12.240;2023-02-18T12:15:56;96585.16;;;16.49;46.02
12757;BME280;31601;48.042;12.240;2023-02-18T12:18:38;96577.09;;;16.31;47.90
12757;BME280;31601;48.042;12.240;2023-02-18T12:21:22;96568.72;;;16.72;46.68
12757;BME280;31601;48.042;12.240;2023-02-18T12:23:59;96567.78;;;16.92;46.46
12757;BME280;31601;48.042;12.240;2023-02-18T12:26:35;96555.19;;;16.87;46.09
12757;BME280;31601;48.042;12.240;2023-02-18T12:29:29;96548.84;;;16.56;46.06
12757;BME280;31601;48.042;12.240;2023-02-18T12:32:16;96544.78;;;17.11;46.24
12757;BME280;31601;48.042;12.240;2023-02-18T12:34:55;96538.47;;;17.12;46.46
12757;BME280;31601;48.042;12.240;2023-02-18T12:37:45;96550.38;;;17.03;45.63
12757;BME280;31601;48.042;12.240;2023-02-18T12:40:35;96529.44;;;17.20;45.78
12757;BME280;31601;48.042;12.240;2023-02-18T12:43:12;96526.91;;;17.06;45.19
12757;BME280;31601;48.042;12.240;2023-02-18T12:45:55;96532.28;;;16.93;45.39
12757;BME280;31601;48.042;12.240;2023-02-18T12:48:43;96515.22;;;16.82;45.30
12757;BME280;31601;48.042;12.240;2023-02-18T12:51:22;96512.91;;;17.17;44.72
12757;BME280;31601;48.042;12.240;2023-02-18T12:54:08;96508.44;;;17.18;44.89
12757;BME280;31601;48.042;12.240;2023-02-18T12:56:50;96512.28;;;16.97;45.63
12757;BME280;31601;48.042;12.240;2023-02-18T12:59:51;96509.13;;;16.81;45.90
12757;BME280;31601;48.042;12.240;2023-02-18T13:02:37;96514.22;;;16.58;45.77
12757;BME280;31601;48.042;12.240;2023-02-18T13:05:17;96509.28;;;16.29;46.00
12757;BME280;31601;48.042;12.240;2023-02-18T13:07:59;96514.22;;;16.51;45.74
12757;BME280;31601;48.042;12.240;2023-02-18T13:10:43;96503.13;;;16.36;45.75